createdAt,value
2018-04-08T00:01:41.961Z,87.88
2018-04-08T00:04:09.596Z,88.28
2018-04-08T00:06:37.123Z,88.12
2018-04-08T00:09:05.583Z,88.30
2018-04-08T00:11:33.874Z,88.17
2018-04-08T00:14:01.434Z,87.93
2018-04-08T00:16:29.566Z,86.91
2018-04-08T00:18:57.130Z,86.87
2018-04-08T00:21:24.692Z,87.19
2018-04-08T00:23:52.222Z,87.79
2018-04-08T00:26:19.722Z,87.75
2018-04-08T00:28:47.217Z,88.01
2018-04-08T00:31:14.777Z,89.03
2018-04-08T00:33:42.324Z,87.43
2018-04-08T00:36:09.885Z,85.59
2018-04-08T00:38:37.451Z,85.31
2018-04-08T00:41:05.110Z,86.14
2018-04-08T00:43:32.650Z,86.28
2018-04-08T00:46:00.218Z,85.96
2018-04-08T00:48:28.377Z,86.15
2018-04-08T00:50:55.930Z,86.22
2018-04-08T00:53:23.834Z,86.44
2018-04-08T00:55:51.406Z,87.45
2018-04-08T00:58:18.941Z,87.77
2018-04-08T01:00:47.393Z,88.07
2018-04-08T01:03:15.052Z,88.23
2018-04-08T01:05:42.591Z,88.48
2018-04-08T01:08:10.155Z,88.37
2018-04-08T01:10:37.722Z,88.46
2018-04-08T01:13:05.381Z,88.75
2018-04-08T01:15:32.932Z,88.64
2018-04-08T01:18:00.412Z,88.99
2018-04-08T01:20:28.077Z,89.42
2018-04-08T01:22:55.571Z,89.68
2018-04-08T01:25:23.061Z,89.64
2018-04-08T01:27:50.588Z,89.27
2018-04-08T01:30:18.084Z,88.93
2018-04-08T01:32:45.573Z,89.41
2018-04-08T01:35:13.602Z,89.59
2018-04-08T01:37:43.087Z,89.53
2018-04-08T01:40:10.659Z,89.31
2018-04-08T01:42:38.196Z,89.46
2018-04-08T01:45:06.045Z,90.03
2018-04-08T01:47:33.673Z,90.12
2018-04-08T01:50:01.183Z,90.07
2018-04-08T01:52:28.694Z,90.28
2018-04-08T01:54:56.227Z,90.31
2018-04-08T01:57:23.832Z,90.17
2018-04-08T01:59:51.344Z,89.86
2018-04-08T02:02:21.391Z,89.67
2018-04-08T02:04:48.965Z,89.60
2018-04-08T02:07:16.486Z,89.62
2018-04-08T02:09:44.030Z,89.40
2018-04-08T02:12:11.574Z,89.61
2018-04-08T02:14:40.078Z,89.39
2018-04-08T02:17:08.057Z,89.00
2018-04-08T02:19:36.097Z,88.95
2018-04-08T02:22:03.683Z,88.97
2018-04-08T02:24:32.735Z,89.07
2018-04-08T02:27:00.265Z,89.26
2018-04-08T02:29:27.817Z,89.11
2018-04-08T02:31:56.158Z,89.44
2018-04-08T02:34:25.363Z,89.31
2018-04-08T02:36:53.789Z,89.32
2018-04-08T02:39:21.509Z,89.27
2018-04-08T02:41:49.046Z,89.44
2018-04-08T02:44:17.300Z,89.56
2018-04-08T02:46:46.470Z,89.14
2018-04-08T02:49:14.201Z,88.63
2018-04-08T02:51:41.750Z,88.43
2018-04-08T02:54:09.355Z,88.26
2018-04-08T02:56:37.282Z,88.34
2018-04-08T02:59:05.324Z,87.99
2018-04-08T03:01:33.196Z,88.29
2018-04-08T03:04:00.753Z,88.56
2018-04-08T03:06:28.278Z,88.69
2018-04-08T03:08:55.825Z,88.68
2018-04-08T03:11:23.614Z,89.26
2018-04-08T03:13:52.128Z,89.23
2018-04-08T03:16:19.824Z,89.28
2018-04-08T03:18:47.391Z,89.89
2018-04-08T03:21:14.969Z,90.87
2018-04-08T03:23:42.510Z,91.29
2018-04-08T03:26:10.019Z,91.16
2018-04-08T03:28:37.522Z,90.79
2018-04-08T03:31:05.008Z,91.19
2018-04-08T03:33:32.499Z,91.47
2018-04-08T03:36:00.945Z,91.40
2018-04-08T03:38:28.439Z,91.43
2018-04-08T03:40:55.956Z,91.64
2018-04-08T03:43:23.807Z,91.35
2018-04-08T03:45:51.830Z,91.56
2018-04-08T03:48:19.385Z,91.42
2018-04-08T03:50:46.923Z,91.24
2018-04-08T03:53:14.454Z,91.11
2018-04-08T03:55:42.009Z,91.31
2018-04-08T03:58:09.668Z,91.28
2018-04-08T04:00:38.486Z,91.04
2018-04-08T04:03:06.180Z,90.58
2018-04-08T04:05:33.724Z,90.59
2018-04-08T04:08:01.296Z,90.94
2018-04-08T04:10:28.832Z,91.00
2018-04-08T04:12:56.366Z,91.10
2018-04-08T04:15:23.925Z,91.62
2018-04-08T04:17:51.467Z,92.59
2018-04-08T04:20:30.672Z,92.82
2018-04-08T04:23:10.098Z,92.50
2018-04-08T04:28:37.352Z,92.59
2018-04-08T04:31:04.922Z,92.86
2018-04-08T04:33:32.793Z,92.81
2018-04-08T04:36:00.300Z,93.07
2018-04-08T04:38:28.945Z,92.89
2018-04-08T04:40:56.597Z,93.12
2018-04-08T04:43:24.153Z,92.91
2018-04-08T04:45:53.134Z,92.76
2018-04-08T04:48:20.751Z,92.96
2018-04-08T04:50:48.296Z,92.96
2018-04-08T04:53:15.786Z,92.99
2018-04-08T04:55:43.270Z,92.83
2018-04-08T04:58:10.768Z,93.01
2018-04-08T05:00:39.207Z,92.71
2018-04-08T05:03:06.787Z,93.05
2018-04-08T05:05:34.332Z,92.83
2018-04-08T05:08:01.874Z,92.91
2018-04-08T05:10:29.472Z,92.75
2018-04-08T05:12:57.169Z,92.91
2018-04-08T05:15:24.693Z,92.71
2018-04-08T05:17:52.255Z,92.77
2018-04-08T05:20:19.797Z,92.51
2018-04-08T05:22:47.335Z,92.35
2018-04-08T05:25:14.891Z,91.86
2018-04-08T05:27:44.053Z,91.41
2018-04-08T05:30:11.630Z,91.04
2018-04-08T05:32:39.189Z,90.27
2018-04-08T05:35:06.759Z,89.58
2018-04-08T05:37:35.009Z,89.31
2018-04-08T05:40:02.573Z,89.13
2018-04-08T05:42:30.121Z,88.95
2018-04-08T05:44:57.688Z,88.67
2018-04-08T05:47:25.234Z,88.23
2018-04-08T05:49:52.773Z,88.26
2018-04-08T05:52:20.351Z,87.99
2018-04-08T05:54:47.881Z,87.97
2018-04-08T05:57:16.090Z,87.59
2018-04-08T05:59:44.439Z,87.28
2018-04-08T06:02:12.133Z,86.35
2018-04-08T06:04:41.299Z,85.71
2018-04-08T06:07:09.083Z,85.13
2018-04-08T06:09:37.453Z,84.89
2018-04-08T06:12:05.940Z,84.72
2018-04-08T06:14:34.653Z,84.84
2018-04-08T06:17:02.200Z,84.31
2018-04-08T06:19:29.740Z,84.34
2018-04-08T06:21:59.208Z,83.89
2018-04-08T06:24:28.386Z,82.80
2018-04-08T06:29:46.081Z,82.18
2018-04-08T06:32:13.587Z,82.26
2018-04-08T06:34:41.096Z,79.87
2018-04-08T06:37:08.591Z,79.57
2018-04-08T06:39:36.076Z,77.73
2018-04-08T06:42:05.135Z,77.44
2018-04-08T06:44:34.455Z,77.08
2018-04-08T06:47:02.055Z,76.04
2018-04-08T06:49:29.658Z,75.21
2018-04-08T06:51:57.204Z,74.27
2018-04-08T06:54:24.815Z,74.82
2018-04-08T06:56:52.541Z,73.88
2018-04-08T06:59:20.034Z,72.76
2018-04-08T07:01:47.571Z,71.51
2018-04-08T07:04:15.202Z,71.84
2018-04-08T07:06:42.681Z,71.88
2018-04-08T07:09:10.427Z,70.16
2018-04-08T07:11:38.220Z,70.59
2018-04-08T07:14:05.703Z,70.02
2018-04-08T07:16:33.199Z,69.37
2018-04-08T07:19:00.716Z,68.61
2018-04-08T07:21:28.230Z,68.86
2018-04-08T07:23:55.718Z,67.78
2018-04-08T07:26:23.216Z,67.51
2018-04-08T07:28:51.198Z,67.42
2018-04-08T07:31:18.981Z,65.38
2018-04-08T07:33:46.486Z,65.69
2018-04-08T07:36:14.002Z,65.60
2018-04-08T07:38:41.492Z,65.39
2018-04-08T07:41:09.685Z,63.83
2018-04-08T07:43:37.236Z,62.82
2018-04-08T07:46:04.792Z,61.28
2018-04-08T07:48:33.207Z,61.33
2018-04-08T07:51:00.834Z,61.43
2018-04-08T07:53:28.578Z,59.32
2018-04-08T07:55:56.143Z,58.88
2018-04-08T07:58:23.682Z,58.36
2018-04-08T08:00:51.215Z,59.27
2018-04-08T08:03:19.149Z,59.74
2018-04-08T08:05:46.698Z,58.25
2018-04-08T08:08:14.442Z,57.58
2018-04-08T08:10:43.127Z,59.42
2018-04-08T08:13:10.861Z,58.91
2018-04-08T08:15:38.671Z,55.31
2018-04-08T08:18:06.773Z,53.39
2018-04-08T08:20:34.741Z,53.89
2018-04-08T08:23:02.260Z,52.42
2018-04-08T08:25:29.753Z,54.43
2018-04-08T08:27:57.238Z,57.46
2018-04-08T08:30:24.716Z,56.13
2018-04-08T08:32:52.230Z,55.00
2018-04-08T08:35:20.225Z,50.81
2018-04-08T08:37:49.561Z,52.26
2018-04-08T08:40:17.143Z,51.39
2018-04-08T08:42:44.674Z,49.40
2018-04-08T08:45:12.528Z,49.22
2018-04-08T08:47:40.044Z,49.93
2018-04-08T08:53:12.296Z,48.69
2018-04-08T08:55:39.888Z,50.29
2018-04-08T08:58:07.425Z,49.00
2018-04-08T09:00:34.951Z,48.93
2018-04-08T09:03:02.522Z,47.39
2018-04-08T09:20:35.738Z,46.12
2018-04-08T09:23:21.951Z,45.19
2018-04-08T09:26:01.217Z,46.15
2018-04-08T09:28:28.713Z,45.29
2018-04-08T09:30:56.204Z,43.94
2018-04-08T09:33:24.798Z,44.22
2018-04-08T09:35:52.603Z,43.28
2018-04-08T09:38:20.301Z,44.32
2018-04-08T09:40:47.845Z,43.01
2018-04-08T09:43:15.795Z,43.46
2018-04-08T09:45:43.344Z,43.89
2018-04-08T09:48:10.887Z,43.49
2018-04-08T09:50:40.044Z,41.84
2018-04-08T09:53:07.658Z,41.49
2018-04-08T09:55:35.264Z,39.20
2018-04-08T09:58:03.757Z,41.10
2018-04-08T10:00:38.266Z,40.69
2018-04-08T10:03:11.920Z,42.38
2018-04-08T10:05:39.608Z,40.01
2018-04-08T10:08:07.083Z,38.70
2018-04-08T10:10:38.424Z,38.66
2018-04-08T10:13:06.386Z,37.03
2018-04-08T10:15:34.789Z,38.44
2018-04-08T10:18:07.366Z,37.75
2018-04-08T10:20:39.077Z,37.19
2018-04-08T10:23:07.261Z,37.52
2018-04-08T10:25:34.861Z,37.68
2018-04-08T10:28:02.594Z,37.27
2018-04-08T10:30:30.122Z,36.48
2018-04-08T10:32:57.613Z,38.94
2018-04-08T10:35:25.472Z,36.89
2018-04-08T10:37:57.990Z,35.51
2018-04-08T10:40:25.601Z,39.02
2018-04-08T10:42:53.185Z,36.41
2018-04-08T10:45:20.822Z,35.80
2018-04-08T10:47:50.039Z,36.92
2018-04-08T10:50:17.710Z,36.22
2018-04-08T10:52:45.494Z,35.59
2018-04-08T10:57:51.172Z,35.41
2018-04-08T11:00:18.722Z,36.36
2018-04-08T11:02:46.277Z,38.17
2018-04-08T11:05:13.897Z,35.52
2018-04-08T11:07:41.503Z,33.94
2018-04-08T11:10:09.112Z,35.02
2018-04-08T11:12:36.660Z,35.03
2018-04-08T11:15:04.266Z,34.06
2018-04-08T11:17:31.843Z,34.91
2018-04-08T11:19:59.408Z,35.63
2018-04-08T11:22:28.298Z,33.92
2018-04-08T11:24:56.254Z,36.15
2018-04-08T11:27:24.121Z,33.94
2018-04-08T11:29:51.670Z,37.02
2018-04-08T11:32:19.293Z,35.03
2018-04-08T11:34:46.852Z,34.23
2018-04-08T11:37:14.400Z,34.26
2018-04-08T11:39:41.981Z,32.61
2018-04-08T11:42:09.555Z,31.36
2018-04-08T11:44:38.218Z,31.00
2018-04-08T11:47:06.431Z,28.62
2018-04-08T11:49:33.942Z,25.45
2018-04-08T11:52:01.438Z,25.62
2018-04-08T11:54:28.924Z,23.11
2018-04-08T11:56:56.430Z,23.73
2018-04-08T11:59:24.135Z,23.74
2018-04-08T12:01:51.775Z,24.14
2018-04-08T12:04:19.336Z,24.66
2018-04-08T12:06:46.883Z,24.97
2018-04-08T12:09:14.463Z,22.69
2018-04-08T12:11:42.013Z,22.50
2018-04-08T12:14:09.565Z,21.93
2018-04-08T12:16:37.161Z,24.18
2018-04-08T12:19:04.785Z,24.06
2018-04-08T12:21:33.580Z,21.63
2018-04-08T12:24:01.151Z,23.05
2018-04-08T12:29:32.787Z,24.50
2018-04-08T12:32:00.264Z,22.38
2018-04-08T12:34:27.738Z,21.57
2018-04-08T12:36:55.248Z,22.70
2018-04-08T12:39:22.718Z,21.61
2018-04-08T12:41:50.473Z,20.83
2018-04-08T12:44:18.006Z,22.25
2018-04-08T12:46:45.484Z,21.89
2018-04-08T12:49:13.046Z,22.10
2018-04-08T12:51:40.807Z,22.28
2018-04-08T12:54:08.572Z,23.19
2018-04-08T12:56:38.342Z,23.61
2018-04-08T12:59:06.200Z,24.93
2018-04-08T13:01:33.755Z,25.65
2018-04-08T13:04:01.278Z,22.50
2018-04-08T13:06:29.771Z,21.91
2018-04-08T13:08:57.319Z,22.18
2018-04-08T13:11:25.075Z,18.53
2018-04-08T13:13:53.507Z,19.78
2018-04-08T13:16:21.052Z,20.29
2018-04-08T13:18:48.593Z,21.65
2018-04-08T13:21:16.077Z,21.01
2018-04-08T13:23:43.556Z,20.43
2018-04-08T13:26:11.039Z,18.20
2018-04-08T13:28:38.547Z,18.17
2018-04-08T13:31:07.048Z,17.92
2018-04-08T13:33:34.948Z,20.17
2018-04-08T13:36:04.064Z,20.05
2018-04-08T13:38:34.090Z,19.48
2018-04-08T13:41:02.721Z,19.43
2018-04-08T13:43:30.533Z,18.67
2018-04-08T13:46:00.482Z,17.23
2018-04-08T13:48:28.205Z,17.02
2018-04-08T13:50:55.727Z,17.87
2018-04-08T13:53:23.564Z,19.21
2018-04-08T13:55:52.140Z,20.27
2018-04-08T13:58:19.617Z,21.14
2018-04-08T14:00:47.187Z,18.81
2018-04-08T14:03:14.909Z,17.12
2018-04-08T14:05:44.959Z,18.79
2018-04-08T14:08:12.724Z,17.29
2018-04-08T14:10:42.412Z,20.17
2018-04-08T14:13:10.140Z,19.17
2018-04-08T14:15:37.684Z,21.14
2018-04-08T14:18:05.228Z,19.43
2018-04-08T14:20:32.710Z,19.39
2018-04-08T14:23:00.215Z,19.09
2018-04-08T14:25:27.910Z,19.03
2018-04-08T14:27:55.811Z,18.53
2018-04-08T14:30:23.365Z,20.99
2018-04-08T14:32:52.017Z,19.31
2018-04-08T14:35:19.538Z,18.09
2018-04-08T14:37:50.857Z,17.11
2018-04-08T14:40:18.932Z,17.81
2018-04-08T14:42:46.599Z,17.88
2018-04-08T14:45:14.365Z,18.04
2018-04-08T14:47:42.027Z,15.86
2018-04-08T14:50:17.530Z,16.26
2018-04-08T14:52:51.384Z,17.42
2018-04-08T14:55:22.101Z,16.33
2018-04-08T14:57:54.517Z,16.09
2018-04-08T15:00:22.271Z,16.09
2018-04-08T15:02:49.890Z,15.13
2018-04-08T15:05:22.339Z,15.92
2018-04-08T15:07:50.278Z,15.32
2018-04-08T15:10:17.835Z,14.53
2018-04-08T15:12:45.482Z,14.46
2018-04-08T15:15:13.095Z,14.81
2018-04-08T15:17:40.994Z,14.52
2018-04-08T15:20:08.542Z,15.48
2018-04-08T15:22:36.630Z,16.51
2018-04-08T15:25:04.320Z,17.23
2018-04-08T15:27:37.761Z,17.44
2018-04-08T15:30:05.282Z,16.24
2018-04-08T15:32:33.977Z,14.96
2018-04-08T15:35:01.511Z,16.23
2018-04-08T15:37:29.048Z,17.46
2018-04-08T15:39:56.698Z,16.76
2018-04-08T15:42:24.349Z,16.87
2018-04-08T15:44:51.885Z,18.47
2018-04-08T15:47:19.484Z,19.40
2018-04-08T15:49:50.570Z,20.18
2018-04-08T15:52:18.756Z,17.17
2018-04-08T15:54:46.415Z,17.10
2018-04-08T15:57:13.995Z,18.83
2018-04-08T15:59:41.573Z,18.40
2018-04-08T16:02:09.177Z,19.57
2018-04-08T16:04:36.852Z,17.04
2018-04-08T16:07:04.508Z,16.16
2018-04-08T16:09:32.087Z,17.41
2018-04-08T16:12:00.505Z,17.47
2018-04-08T16:14:31.510Z,20.71
2018-04-08T16:16:59.077Z,19.45
2018-04-08T16:19:26.678Z,16.91
2018-04-08T16:21:54.258Z,17.51
2018-04-08T16:24:21.830Z,23.31
2018-04-08T16:26:49.438Z,27.04
2018-04-08T16:29:17.219Z,27.32
2018-04-08T16:31:46.460Z,30.19
2018-04-08T16:34:14.281Z,31.72
2018-04-08T16:36:41.873Z,33.31
2018-04-08T16:39:09.460Z,33.20
2018-04-08T16:41:37.062Z,34.42
2018-04-08T16:44:04.611Z,35.00
2018-04-08T16:46:33.301Z,37.38
2018-04-08T16:49:00.819Z,38.76
2018-04-08T16:51:28.361Z,40.66
2018-04-08T16:53:57.940Z,40.68
2018-04-08T16:56:25.479Z,41.01
2018-04-08T16:58:53.005Z,43.32
2018-04-08T17:01:20.552Z,44.36
2018-04-08T17:03:48.085Z,46.64
2018-04-08T17:06:15.611Z,47.63
2018-04-08T17:08:43.160Z,49.32
2018-04-08T17:11:10.900Z,50.90
2018-04-08T17:13:38.501Z,51.80
2018-04-08T17:16:06.029Z,51.21
2018-04-08T17:18:34.342Z,53.15
2018-04-08T17:21:01.845Z,52.62
2018-04-08T17:23:29.355Z,53.01
2018-04-08T17:25:58.280Z,53.10
2018-04-08T17:28:26.019Z,54.00
2018-04-08T17:30:53.707Z,53.68
2018-04-08T17:33:21.704Z,54.48
2018-04-08T17:35:49.540Z,54.84
2018-04-08T17:38:17.132Z,55.67
2018-04-08T17:40:45.330Z,55.67
2018-04-08T17:43:12.974Z,55.96
2018-04-08T17:45:40.497Z,55.07
2018-04-08T17:48:08.071Z,54.67
2018-04-08T17:50:43.366Z,54.95
2018-04-08T17:53:11.320Z,55.72
2018-04-08T17:55:39.498Z,56.20
2018-04-08T17:58:07.043Z,56.19
2018-04-08T18:00:34.838Z,56.17
2018-04-08T18:03:02.490Z,56.68
2018-04-08T18:05:30.024Z,56.85
2018-04-08T18:07:57.675Z,58.44
2018-04-08T18:10:25.235Z,57.42
2018-04-08T18:12:52.922Z,58.08
2018-04-08T18:15:21.155Z,58.12
2018-04-08T18:17:48.776Z,58.24
2018-04-08T18:20:16.307Z,58.64
2018-04-08T18:22:45.254Z,59.00
2018-04-08T18:25:13.230Z,59.71
2018-04-08T18:27:43.229Z,59.85
2018-04-08T18:30:10.875Z,60.08
2018-04-08T18:32:40.008Z,60.95
2018-04-08T18:35:07.559Z,61.41
2018-04-08T18:37:35.215Z,61.99
2018-04-08T18:40:04.471Z,61.19
2018-04-08T18:42:40.130Z,62.48
2018-04-08T18:45:09.384Z,62.46
2018-04-08T18:47:38.292Z,62.73
2018-04-08T18:50:14.610Z,62.70
2018-04-08T18:52:42.540Z,63.53
2018-04-08T18:55:10.121Z,63.49
2018-04-08T18:57:38.974Z,63.92
2018-04-08T19:00:06.602Z,64.62
2018-04-08T19:02:34.148Z,64.74
2018-04-08T19:05:01.733Z,65.45
2018-04-08T19:07:29.595Z,65.79
2018-04-08T19:09:57.374Z,66.09
2018-04-08T19:12:24.865Z,66.31
2018-04-08T19:14:58.054Z,66.34
2018-04-08T19:17:31.754Z,65.86
2018-04-08T19:19:59.310Z,66.00
2018-04-08T19:22:27.914Z,66.65
2018-04-08T19:24:56.169Z,67.37
2018-04-08T19:27:29.799Z,67.49
2018-04-08T19:29:57.342Z,67.55
2018-04-08T19:32:24.920Z,67.81
2018-04-08T19:34:52.451Z,67.82
2018-04-08T19:37:19.980Z,68.07
2018-04-08T19:39:47.593Z,67.99
2018-04-08T19:42:15.155Z,68.26
2018-04-08T19:44:42.685Z,68.56
2018-04-08T19:47:11.223Z,68.71
2018-04-08T19:49:38.871Z,68.57
2018-04-08T19:52:06.530Z,68.49
2018-04-08T19:54:34.431Z,69.08
2018-04-08T19:57:01.947Z,68.98
2018-04-08T19:59:30.444Z,68.99
2018-04-08T20:01:58.161Z,68.67
2018-04-08T20:04:25.794Z,68.81
2018-04-08T20:06:53.318Z,68.79
2018-04-08T20:09:20.872Z,68.98
2018-04-08T20:11:48.371Z,69.31
2018-04-08T20:14:15.960Z,69.35
2018-04-08T20:16:43.775Z,69.69
2018-04-08T20:19:11.649Z,69.96
2018-04-08T20:21:39.259Z,70.31
2018-04-08T20:24:06.816Z,70.42
2018-04-08T20:26:34.466Z,70.41
2018-04-08T20:29:02.060Z,70.42
2018-04-08T20:31:30.636Z,70.38
2018-04-08T20:33:58.197Z,70.42
2018-04-08T20:36:25.969Z,71.06
2018-04-08T20:38:53.479Z,70.53
2018-04-08T20:41:21.003Z,70.97
2018-04-08T20:43:49.695Z,70.61
2018-04-08T20:46:17.502Z,70.28
2018-04-08T20:48:45.061Z,69.31
2018-04-08T20:51:12.615Z,69.00
2018-04-08T20:53:41.122Z,69.41
2018-04-08T20:56:08.614Z,69.63
2018-04-08T20:58:36.155Z,69.99
2018-04-08T21:03:54.202Z,71.42
2018-04-08T21:09:11.955Z,71.39
2018-04-08T21:11:39.440Z,71.46
2018-04-08T21:14:06.982Z,71.37
2018-04-08T21:16:34.531Z,71.43
2018-04-08T21:19:02.103Z,71.88
2018-04-08T21:21:29.646Z,72.35
2018-04-08T21:23:57.792Z,71.71
2018-04-08T21:26:25.335Z,72.26
2018-04-08T21:28:52.955Z,72.01
2018-04-08T21:31:21.012Z,72.22
2018-04-08T21:33:48.590Z,72.29
2018-04-08T21:39:06.645Z,72.71
2018-04-08T21:41:34.137Z,72.84
2018-04-08T21:44:01.651Z,72.75
2018-04-08T21:46:29.233Z,72.33
2018-04-08T21:48:56.884Z,72.38
2018-04-08T21:51:24.979Z,72.46
2018-04-08T21:53:52.549Z,72.55
2018-04-08T21:56:20.201Z,72.83
2018-04-08T21:58:47.874Z,72.80
2018-04-08T22:01:15.448Z,73.08
2018-04-08T22:03:45.032Z,72.96
2018-04-08T22:06:12.594Z,73.22
2018-04-08T22:08:40.161Z,73.39
2018-04-08T22:11:07.989Z,73.25
2018-04-08T22:13:37.090Z,72.79
2018-04-08T22:16:04.624Z,72.99
2018-04-08T22:18:34.459Z,72.79
2018-04-08T22:21:02.090Z,73.07
2018-04-08T22:23:30.616Z,72.99
2018-04-08T22:25:58.197Z,72.92
2018-04-08T22:28:25.726Z,72.94
2018-04-08T22:30:53.221Z,72.52
2018-04-08T22:33:20.963Z,73.15
2018-04-08T22:35:48.483Z,73.43
2018-04-08T22:38:16.026Z,73.62
2018-04-08T22:40:45.353Z,73.49
2018-04-08T22:43:12.902Z,73.56
2018-04-08T22:45:40.436Z,73.27
2018-04-08T22:48:08.017Z,73.11
2018-04-08T22:50:36.155Z,73.23
2018-04-08T22:53:03.777Z,73.78
2018-04-08T22:55:33.119Z,73.39
2018-04-08T22:58:00.662Z,73.07
2018-04-08T23:00:28.194Z,72.90
2018-04-08T23:02:55.698Z,73.25
2018-04-08T23:05:23.532Z,73.05
2018-04-08T23:07:51.011Z,72.95
2018-04-08T23:10:18.477Z,72.75
2018-04-08T23:12:45.983Z,73.06
2018-04-08T23:15:13.770Z,73.36
2018-04-08T23:17:41.456Z,73.51
2018-04-08T23:20:09.000Z,73.35
2018-04-08T23:22:36.537Z,73.31
2018-04-08T23:25:04.084Z,73.17
2018-04-08T23:27:33.068Z,72.96
2018-04-08T23:30:00.591Z,73.16
2018-04-08T23:32:28.416Z,73.47
2018-04-08T23:34:55.917Z,73.58
2018-04-08T23:37:23.612Z,73.57
2018-04-08T23:39:51.151Z,73.41
2018-04-08T23:45:09.106Z,72.50
2018-04-08T23:47:36.655Z,72.25
2018-04-08T23:50:04.206Z,72.38
2018-04-08T23:52:31.738Z,72.56
2018-04-08T23:54:59.293Z,73.34
2018-04-08T23:57:26.838Z,73.60
2018-04-08T23:59:54.367Z,73.83
